createdAt,value
2018-08-20T00:00:58.830Z,0.00
2018-08-20T00:01:51.083Z,0.00
2018-08-20T00:02:51.106Z,0.00
2018-08-20T00:03:58.862Z,0.00
2018-08-20T00:04:51.068Z,0.00
2018-08-20T00:05:51.041Z,0.00
2018-08-20T00:07:00.420Z,0.00
2018-08-20T00:07:51.019Z,0.00
2018-08-20T00:08:51.060Z,0.00
2018-08-20T00:10:00.472Z,0.00
2018-08-20T00:10:50.985Z,0.00
2018-08-20T00:11:50.998Z,0.00
2018-08-20T00:12:58.997Z,0.00
2018-08-20T00:13:50.957Z,0.00
2018-08-20T00:14:50.969Z,0.00
2018-08-20T00:15:58.527Z,0.00
2018-08-20T00:16:50.949Z,0.00
2018-08-20T00:17:50.909Z,0.00
2018-08-20T00:19:00.085Z,0.00
2018-08-20T00:19:50.925Z,0.00
2018-08-20T00:20:50.871Z,0.00
2018-08-20T00:21:50.863Z,0.00
2018-08-20T00:22:50.851Z,0.00
2018-08-20T00:23:50.881Z,0.00
2018-08-20T00:24:50.823Z,0.00
2018-08-20T00:25:50.859Z,0.00
2018-08-20T00:26:50.807Z,0.00
2018-08-20T00:27:50.830Z,0.00
2018-08-20T00:28:50.789Z,0.00
2018-08-20T00:29:50.825Z,0.00
2018-08-20T00:30:50.757Z,0.00
2018-08-20T00:31:50.753Z,0.00
2018-08-20T00:32:50.735Z,0.00
2018-08-20T00:33:50.725Z,0.00
2018-08-20T00:34:50.761Z,0.00
2018-08-20T00:35:50.701Z,0.00
2018-08-20T00:36:50.736Z,0.00
2018-08-20T00:37:50.681Z,0.00
2018-08-20T00:38:50.681Z,0.00
2018-08-20T00:39:50.661Z,0.00
2018-08-20T00:40:50.658Z,0.00
2018-08-20T00:41:50.682Z,0.00
2018-08-20T00:42:50.610Z,0.00
2018-08-20T00:43:50.605Z,0.00
2018-08-20T00:44:50.591Z,0.00
2018-08-20T00:45:50.576Z,0.00
2018-08-20T00:46:50.623Z,0.00
2018-08-20T00:47:50.556Z,0.00
2018-08-20T00:48:50.547Z,0.00
2018-08-20T00:49:50.540Z,0.00
2018-08-20T00:50:50.524Z,0.00
2018-08-20T00:51:50.554Z,0.00
2018-08-20T00:52:50.535Z,0.00
2018-08-20T00:53:50.493Z,0.00
2018-08-20T00:54:50.507Z,0.00
2018-08-20T00:55:50.472Z,0.00
2018-08-20T00:56:50.465Z,0.00
2018-08-20T00:57:50.489Z,0.00
2018-08-20T00:58:50.441Z,0.00
2018-08-20T00:59:50.436Z,0.00
2018-08-20T01:00:50.427Z,0.00
2018-08-20T01:01:50.412Z,0.00
2018-08-20T01:02:50.440Z,0.00
2018-08-20T01:03:50.397Z,0.00
2018-08-20T01:04:50.419Z,0.00
2018-08-20T01:05:50.363Z,0.00
2018-08-20T01:06:50.364Z,0.00
2018-08-20T01:07:50.389Z,0.00
2018-08-20T01:08:50.344Z,0.00
2018-08-20T01:09:50.353Z,0.00
2018-08-20T01:10:50.305Z,0.00
2018-08-20T01:11:50.292Z,0.00
2018-08-20T01:12:50.323Z,0.00
2018-08-20T01:13:50.306Z,0.00
2018-08-20T01:14:50.258Z,0.00
2018-08-20T01:15:50.276Z,0.00
2018-08-20T01:16:50.224Z,0.00
2018-08-20T01:17:50.219Z,0.00
2018-08-20T01:18:59.612Z,0.00
2018-08-20T01:19:50.238Z,0.00
2018-08-20T01:20:50.230Z,0.00
2018-08-20T01:21:58.124Z,0.00
2018-08-20T01:22:50.171Z,0.00
2018-08-20T01:23:50.155Z,0.00
2018-08-20T01:24:58.168Z,0.00
2018-08-20T01:25:50.163Z,0.00
2018-08-20T01:26:50.118Z,0.00
2018-08-20T01:27:50.112Z,0.00
2018-08-20T01:28:50.090Z,0.00
2018-08-20T01:29:50.090Z,0.00
2018-08-20T01:30:59.226Z,0.00
2018-08-20T01:31:50.065Z,0.00
2018-08-20T01:32:50.055Z,0.00
2018-08-20T01:33:50.038Z,0.00
2018-08-20T01:34:50.079Z,0.00
2018-08-20T01:35:50.016Z,0.00
2018-08-20T01:36:57.732Z,0.00
2018-08-20T01:37:50.011Z,0.00
2018-08-20T01:38:49.989Z,0.00
2018-08-20T01:39:50.016Z,0.00
2018-08-20T01:40:50.004Z,0.00
2018-08-20T01:41:49.990Z,0.00
2018-08-20T01:42:49.953Z,0.00
2018-08-20T01:43:49.947Z,0.00
2018-08-20T01:44:49.931Z,0.00
2018-08-20T01:45:49.913Z,0.00
2018-08-20T01:46:49.927Z,0.00
2018-08-20T01:47:49.892Z,0.00
2018-08-20T01:48:49.878Z,0.00
2018-08-20T01:49:49.868Z,0.00
2018-08-20T01:50:49.858Z,0.00
2018-08-20T01:51:49.866Z,0.00
2018-08-20T01:52:49.842Z,0.00
2018-08-20T01:53:49.816Z,0.00
2018-08-20T01:54:49.814Z,0.00
2018-08-20T01:55:49.832Z,0.00
2018-08-20T01:56:49.791Z,0.00
2018-08-20T01:57:49.769Z,0.00
2018-08-20T01:58:49.770Z,0.00
2018-08-20T01:59:49.756Z,0.00
2018-08-20T02:00:49.772Z,0.00
2018-08-20T02:01:49.732Z,0.00
2018-08-20T02:02:49.750Z,0.00
2018-08-20T02:03:49.715Z,0.00
2018-08-20T02:04:49.696Z,0.00
2018-08-20T02:05:49.692Z,0.00
2018-08-20T02:06:49.668Z,0.00
2018-08-20T02:07:49.697Z,0.00
2018-08-20T02:08:49.648Z,0.00
2018-08-20T02:09:49.629Z,0.00
2018-08-20T02:10:49.622Z,0.00
2018-08-20T02:11:49.616Z,0.00
2018-08-20T02:12:49.633Z,0.00
2018-08-20T02:13:49.596Z,0.00
2018-08-20T02:14:49.589Z,0.00
2018-08-20T02:15:49.564Z,0.00
2018-08-20T02:16:49.564Z,0.00
2018-08-20T02:17:49.566Z,0.00
2018-08-20T02:18:49.530Z,0.00
2018-08-20T02:19:49.524Z,0.00
2018-08-20T02:20:49.510Z,0.00
2018-08-20T02:21:49.498Z,0.00
2018-08-20T02:22:49.534Z,0.00
2018-08-20T02:23:49.475Z,0.00
2018-08-20T02:24:49.460Z,0.00
2018-08-20T02:25:49.450Z,0.00
2018-08-20T02:26:49.442Z,0.00
2018-08-20T02:27:49.464Z,0.00
2018-08-20T02:28:49.426Z,0.00
2018-08-20T02:29:49.398Z,0.00
2018-08-20T02:30:49.398Z,0.00
2018-08-20T02:31:49.387Z,0.00
2018-08-20T02:32:49.399Z,0.00
2018-08-20T02:33:49.364Z,0.00
2018-08-20T02:34:49.392Z,0.00
2018-08-20T02:35:49.340Z,0.00
2018-08-20T02:36:49.320Z,0.00
2018-08-20T02:37:49.322Z,0.00
2018-08-20T02:38:49.312Z,0.00
2018-08-20T02:39:49.338Z,0.00
2018-08-20T02:40:49.290Z,0.00
2018-08-20T02:41:49.281Z,0.00
2018-08-20T02:42:49.268Z,0.00
2018-08-20T02:43:49.257Z,0.00
2018-08-20T02:44:49.278Z,0.00
2018-08-20T02:45:49.236Z,0.00
2018-08-20T02:46:49.220Z,0.00
2018-08-20T02:47:49.210Z,0.00
2018-08-20T02:48:49.195Z,0.00
2018-08-20T02:49:49.232Z,0.00
2018-08-20T02:50:49.180Z,0.00
2018-08-20T02:51:49.170Z,0.00
2018-08-20T02:52:49.157Z,0.00
2018-08-20T02:53:49.153Z,0.00
2018-08-20T02:54:49.172Z,0.00
2018-08-20T02:55:49.115Z,0.00
2018-08-20T02:56:49.118Z,0.00
2018-08-20T02:57:49.094Z,0.00
2018-08-20T02:58:49.081Z,0.00
2018-08-20T02:59:49.105Z,0.00
2018-08-20T03:00:49.092Z,0.00
2018-08-20T03:01:49.046Z,0.00
2018-08-20T03:02:49.041Z,0.00
2018-08-20T03:03:49.046Z,0.00
2018-08-20T03:04:49.023Z,0.00
2018-08-20T03:05:49.032Z,0.00
2018-08-20T03:06:49.000Z,0.00
2018-08-20T03:07:48.985Z,0.00
2018-08-20T03:08:48.980Z,0.00
2018-08-20T03:09:48.949Z,0.00
2018-08-20T03:10:48.968Z,0.00
2018-08-20T03:11:48.928Z,0.00
2018-08-20T03:12:48.912Z,0.00
2018-08-20T03:13:48.944Z,0.00
2018-08-20T03:14:48.897Z,0.00
2018-08-20T03:15:48.883Z,0.00
2018-08-20T03:16:48.874Z,0.00
2018-08-20T03:17:48.861Z,0.00
2018-08-20T03:18:48.880Z,0.00
2018-08-20T03:19:48.847Z,0.00
2018-08-20T03:20:48.822Z,0.00
2018-08-20T03:21:48.816Z,0.00
2018-08-20T03:22:48.802Z,0.00
2018-08-20T03:23:48.830Z,4.00
2018-08-20T03:24:48.784Z,4.00
2018-08-20T03:25:48.776Z,4.00
2018-08-20T03:26:48.760Z,4.00
2018-08-20T03:27:48.754Z,4.00
2018-08-20T03:28:48.810Z,4.00
2018-08-20T03:29:48.719Z,4.00
2018-08-20T03:30:48.711Z,4.00
2018-08-20T03:31:48.706Z,8.00
2018-08-20T03:32:48.693Z,8.00
2018-08-20T03:33:48.727Z,8.00
2018-08-20T03:34:48.671Z,8.00
2018-08-20T03:35:48.659Z,12.00
2018-08-20T03:36:48.650Z,12.00
2018-08-20T03:37:48.647Z,12.00
2018-08-20T03:38:48.666Z,12.00
2018-08-20T03:39:48.616Z,16.00
2018-08-20T03:40:48.639Z,20.00
2018-08-20T03:41:48.596Z,24.00
2018-08-20T03:42:48.590Z,24.00
2018-08-20T03:43:48.611Z,28.00
2018-08-20T03:44:48.568Z,28.00
2018-08-20T03:45:48.614Z,32.00
2018-08-20T03:46:48.539Z,32.00
2018-08-20T03:47:48.535Z,32.00
2018-08-20T03:48:48.517Z,32.00
2018-08-20T03:49:48.513Z,32.00
2018-08-20T03:50:48.537Z,36.00
2018-08-20T03:51:48.479Z,48.00
2018-08-20T03:52:48.478Z,56.00
2018-08-20T03:53:48.458Z,68.00
2018-08-20T03:54:48.450Z,76.00
2018-08-20T03:55:48.480Z,80.00
2018-08-20T03:56:48.431Z,80.00
2018-08-20T03:57:48.431Z,80.00
2018-08-20T03:58:48.403Z,92.00
2018-08-20T03:59:48.401Z,104.00
2018-08-20T04:00:48.414Z,120.00
2018-08-20T04:01:48.372Z,136.00
2018-08-20T04:02:48.362Z,160.00
2018-08-20T04:03:48.345Z,184.00
2018-08-20T04:04:48.400Z,200.00
2018-08-20T04:05:48.361Z,208.00
2018-08-20T04:06:48.316Z,216.00
2018-08-20T04:07:48.306Z,224.00
2018-08-20T04:08:48.291Z,232.00
2018-08-20T04:09:48.282Z,252.00
2018-08-20T04:10:48.337Z,284.00
2018-08-20T04:11:48.258Z,312.00
2018-08-20T04:12:48.235Z,340.00
2018-08-20T04:13:48.229Z,380.00
2018-08-20T04:14:48.236Z,416.00
2018-08-20T04:15:48.239Z,440.00
2018-08-20T04:16:48.196Z,456.00
2018-08-20T04:17:48.187Z,460.00
2018-08-20T04:18:48.170Z,480.00
2018-08-20T04:19:48.160Z,524.00
2018-08-20T04:20:48.183Z,584.00
2018-08-20T04:21:48.166Z,640.00
2018-08-20T04:22:48.123Z,692.00
2018-08-20T04:23:48.106Z,728.00
2018-08-20T04:24:48.104Z,764.00
2018-08-20T04:25:48.090Z,808.00
2018-08-20T04:26:48.121Z,848.00
2018-08-20T04:27:48.068Z,880.00
2018-08-20T04:28:48.061Z,916.00
2018-08-20T04:29:48.042Z,944.00
2018-08-20T04:30:48.030Z,944.00
2018-08-20T04:31:48.072Z,956.00
2018-08-20T04:32:48.009Z,984.00
2018-08-20T04:33:48.004Z,984.00
2018-08-20T04:34:47.986Z,1000.00
2018-08-20T04:35:47.972Z,1076.00
2018-08-20T04:36:48.011Z,1192.00
2018-08-20T04:37:47.952Z,1308.00
2018-08-20T04:38:47.948Z,1428.00
2018-08-20T04:39:47.926Z,1516.00
2018-08-20T04:40:47.922Z,1564.00
2018-08-20T04:41:47.942Z,1620.00
2018-08-20T04:42:47.898Z,1732.00
2018-08-20T04:43:47.895Z,1836.00
2018-08-20T04:44:47.878Z,1808.00
2018-08-20T04:45:47.870Z,1748.00
2018-08-20T04:46:47.908Z,1724.00
2018-08-20T04:47:47.850Z,1764.00
2018-08-20T04:48:47.852Z,1840.00
2018-08-20T04:49:47.909Z,1868.00
2018-08-20T04:50:47.860Z,1868.00
2018-08-20T04:51:47.832Z,1868.00
2018-08-20T04:52:47.817Z,1884.00
2018-08-20T04:53:47.780Z,1932.00
2018-08-20T04:54:47.764Z,1968.00
2018-08-20T04:55:47.758Z,2024.00
2018-08-20T04:56:47.752Z,2124.00
2018-08-20T04:57:47.782Z,2244.00
2018-08-20T04:58:47.718Z,2332.00
2018-08-20T04:59:47.701Z,2372.00
2018-08-20T05:00:47.730Z,2308.00
2018-08-20T05:01:47.680Z,2248.00
2018-08-20T05:02:47.711Z,2164.00
2018-08-20T05:03:47.661Z,2184.00
2018-08-20T05:04:47.645Z,2308.00
2018-08-20T05:05:47.641Z,2348.00
2018-08-20T05:06:47.621Z,2376.00
2018-08-20T05:07:47.644Z,2132.00
2018-08-20T05:08:47.603Z,1664.00
2018-08-20T05:09:47.590Z,1568.00
2018-08-20T05:10:47.610Z,1664.00
2018-08-20T05:11:47.561Z,1696.00
2018-08-20T05:12:47.565Z,1864.00
2018-08-20T05:13:47.542Z,2096.00
2018-08-20T05:14:47.572Z,2336.00
2018-08-20T05:15:47.523Z,2588.00
2018-08-20T05:16:47.559Z,2764.00
2018-08-20T05:17:47.511Z,2824.00
2018-08-20T05:18:47.553Z,2864.00
2018-08-20T05:19:47.514Z,2956.00
2018-08-20T05:20:47.474Z,3076.00
2018-08-20T05:21:47.488Z,3128.00
2018-08-20T05:22:47.458Z,3148.00
2018-08-20T05:23:47.436Z,3140.00
2018-08-20T05:24:47.428Z,3184.00
2018-08-20T05:25:47.448Z,3128.00
2018-08-20T05:26:47.466Z,2928.00
2018-08-20T05:27:47.398Z,2692.00
2018-08-20T05:28:47.383Z,2428.00
2018-08-20T05:29:47.378Z,2280.00
2018-08-20T05:30:47.362Z,2264.00
2018-08-20T05:31:47.388Z,2316.00
2018-08-20T05:32:47.342Z,2336.00
2018-08-20T05:33:47.326Z,2480.00
2018-08-20T05:34:47.314Z,2496.00
2018-08-20T05:35:47.354Z,2472.00
2018-08-20T05:36:47.308Z,2568.00
2018-08-20T05:37:47.278Z,2668.00
2018-08-20T05:38:47.276Z,2756.00
2018-08-20T05:39:47.264Z,2920.00
2018-08-20T05:40:47.290Z,2772.00
2018-08-20T05:41:47.263Z,2880.00
2018-08-20T05:42:47.222Z,2380.00
2018-08-20T05:43:47.212Z,2584.00
2018-08-20T05:44:47.203Z,3104.00
2018-08-20T05:45:47.222Z,3248.00
2018-08-20T05:46:47.172Z,3532.00
2018-08-20T05:47:47.155Z,3604.00
2018-08-20T05:48:47.152Z,3772.00
2018-08-20T05:49:47.132Z,3776.00
2018-08-20T05:50:47.159Z,2948.00
2018-08-20T05:51:47.152Z,2356.00
2018-08-20T05:52:47.110Z,2628.00
2018-08-20T05:53:47.090Z,2424.00
2018-08-20T05:54:47.076Z,2644.00
2018-08-20T05:55:47.063Z,2712.00
2018-08-20T05:56:47.107Z,3160.00
2018-08-20T05:57:47.049Z,2948.00
2018-08-20T05:58:47.040Z,2656.00
2018-08-20T05:59:47.022Z,2292.00
2018-08-20T06:00:47.010Z,2408.00
2018-08-20T06:01:47.042Z,2688.00
2018-08-20T06:02:46.989Z,3712.00
2018-08-20T06:03:46.985Z,4008.00
2018-08-20T06:04:46.961Z,3504.00
2018-08-20T06:05:46.955Z,2256.00
2018-08-20T06:06:46.985Z,2764.00
2018-08-20T06:07:46.986Z,3416.00
2018-08-20T06:08:46.913Z,3164.00
2018-08-20T06:09:46.913Z,2276.00
2018-08-20T06:10:46.895Z,1864.00
2018-08-20T06:11:46.929Z,1808.00
2018-08-20T06:12:46.874Z,2336.00
2018-08-20T06:13:46.861Z,2852.00
2018-08-20T06:14:46.880Z,3036.00
2018-08-20T06:15:46.841Z,2724.00
2018-08-20T06:16:46.869Z,2708.00
2018-08-20T06:17:46.814Z,3144.00
2018-08-20T06:18:46.814Z,3872.00
2018-08-20T06:19:46.810Z,3960.00
2018-08-20T06:20:46.788Z,3088.00
2018-08-20T06:21:46.831Z,3672.00
2018-08-20T06:22:46.768Z,4052.00
2018-08-20T06:23:46.760Z,4280.00
2018-08-20T06:24:46.753Z,4792.00
2018-08-20T06:25:46.740Z,4648.00
2018-08-20T06:26:46.760Z,4384.00
2018-08-20T06:27:46.747Z,3712.00
2018-08-20T06:28:46.706Z,3368.00
2018-08-20T06:29:46.686Z,3164.00
2018-08-20T06:30:46.678Z,3488.00
2018-08-20T06:31:46.672Z,4244.00
2018-08-20T06:32:46.690Z,4040.00
2018-08-20T06:33:46.645Z,3340.00
2018-08-20T06:34:46.633Z,2868.00
2018-08-20T06:35:46.676Z,2932.00
2018-08-20T06:36:46.623Z,3212.00
2018-08-20T06:37:46.673Z,4224.00
2018-08-20T06:38:46.603Z,3940.00
2018-08-20T06:39:46.599Z,4156.00
2018-08-20T06:40:46.574Z,4744.00
2018-08-20T06:41:46.560Z,5040.00
2018-08-20T06:42:46.591Z,6228.00
2018-08-20T06:43:46.539Z,8556.00
2018-08-20T06:44:46.528Z,7792.00
2018-08-20T06:45:46.543Z,6308.00
2018-08-20T06:46:46.501Z,6768.00
2018-08-20T06:47:46.552Z,7684.00
2018-08-20T06:48:46.513Z,7988.00
2018-08-20T06:49:46.462Z,7844.00
2018-08-20T06:50:46.472Z,7752.00
2018-08-20T06:51:46.432Z,7488.00
2018-08-20T06:52:46.480Z,7172.00
2018-08-20T06:53:46.432Z,7188.00
2018-08-20T06:54:46.406Z,6820.00
2018-08-20T06:55:46.394Z,8112.00
2018-08-20T06:56:46.387Z,8556.00
2018-08-20T06:57:46.432Z,8916.00
2018-08-20T06:58:46.364Z,9072.00
2018-08-20T06:59:46.348Z,8900.00
2018-08-20T07:00:46.410Z,9272.00
2018-08-20T07:01:46.334Z,9436.00
2018-08-20T07:02:46.352Z,8012.00
2018-08-20T07:03:46.296Z,8060.00
2018-08-20T07:04:46.318Z,6996.00
2018-08-20T07:05:46.274Z,6516.00
2018-08-20T07:06:46.265Z,6996.00
2018-08-20T07:07:46.258Z,7292.00
2018-08-20T07:08:46.236Z,11612.00
2018-08-20T07:09:46.261Z,17536.00
2018-08-20T07:10:46.224Z,19520.00
2018-08-20T07:11:46.220Z,12144.00
2018-08-20T07:12:46.228Z,12084.00
2018-08-20T07:13:46.178Z,12200.00
2018-08-20T07:14:46.170Z,43840.00
2018-08-20T07:15:46.162Z,23328.00
2018-08-20T07:16:46.252Z,38112.00
2018-08-20T07:17:46.302Z,11772.00
2018-08-20T07:18:53.744Z,15064.00
2018-08-20T07:19:46.192Z,13796.00
2018-08-20T07:20:46.114Z,48544.00
2018-08-20T07:21:54.793Z,17344.00
2018-08-20T07:22:46.105Z,13072.00
2018-08-20T07:23:46.147Z,14432.00
2018-08-20T07:24:46.125Z,26176.00
2018-08-20T07:25:46.060Z,11808.00
2018-08-20T07:26:46.058Z,8176.00
2018-08-20T07:27:46.080Z,9604.00
2018-08-20T07:28:46.060Z,11552.00
2018-08-20T07:29:46.016Z,14752.00
2018-08-20T07:30:46.018Z,16832.00
2018-08-20T07:31:45.985Z,12976.00
2018-08-20T07:32:45.995Z,10772.00
2018-08-20T07:33:45.996Z,9132.00
2018-08-20T07:34:45.954Z,8892.00
2018-08-20T07:35:45.938Z,6556.00
2018-08-20T07:36:45.932Z,5060.00
2018-08-20T07:37:45.960Z,4228.00
2018-08-20T07:38:45.920Z,5420.00
2018-08-20T07:39:54.822Z,6216.00
2018-08-20T07:40:45.890Z,6320.00
2018-08-20T07:41:45.879Z,6896.00
2018-08-20T07:42:45.938Z,7456.00
2018-08-20T07:43:45.863Z,7544.00
2018-08-20T07:44:45.853Z,7296.00
2018-08-20T07:45:45.858Z,7268.00
2018-08-20T07:46:45.876Z,8412.00
2018-08-20T07:47:45.861Z,8892.00
2018-08-20T07:48:53.350Z,8588.00
2018-08-20T07:49:45.781Z,9716.00
2018-08-20T07:50:45.879Z,9312.00
2018-08-20T07:51:53.405Z,9068.00
2018-08-20T07:52:45.815Z,10352.00
2018-08-20T07:53:45.730Z,12612.00
2018-08-20T07:54:45.821Z,15108.00
2018-08-20T07:55:45.862Z,15076.00
2018-08-20T07:56:45.707Z,15332.00
2018-08-20T07:57:53.963Z,17344.00
2018-08-20T07:58:45.719Z,17440.00
2018-08-20T07:59:45.671Z,17984.00
2018-08-20T08:00:54.996Z,15724.00
2018-08-20T08:01:45.660Z,12132.00
2018-08-20T08:02:45.634Z,11684.00
2018-08-20T08:03:55.991Z,13012.00
2018-08-20T08:04:45.606Z,13096.00
2018-08-20T08:05:45.629Z,16012.00
2018-08-20T08:06:53.525Z,16992.00
2018-08-20T08:07:45.596Z,16108.00
2018-08-20T08:08:45.642Z,16348.00
2018-08-20T08:09:55.594Z,11784.00
2018-08-20T08:10:45.540Z,11900.00
2018-08-20T08:11:45.563Z,10396.00
2018-08-20T08:12:53.112Z,11104.00
2018-08-20T08:13:45.545Z,10720.00
2018-08-20T08:14:45.513Z,8964.00
2018-08-20T08:15:54.658Z,9144.00
2018-08-20T08:16:45.482Z,9700.00
2018-08-20T08:17:45.464Z,9196.00
2018-08-20T08:18:53.166Z,6768.00
2018-08-20T08:19:45.462Z,7528.00
2018-08-20T08:20:45.442Z,8372.00
2018-08-20T08:21:54.722Z,8824.00
2018-08-20T08:22:45.420Z,8640.00
2018-08-20T08:23:45.400Z,9944.00
2018-08-20T08:24:45.407Z,8772.00
2018-08-20T08:25:45.378Z,6824.00
2018-08-20T08:26:45.423Z,6992.00
2018-08-20T08:27:53.227Z,8268.00
2018-08-20T08:28:45.340Z,6840.00
2018-08-20T08:29:45.317Z,9308.00
2018-08-20T08:30:53.271Z,9752.00
2018-08-20T08:31:45.341Z,9308.00
2018-08-20T08:32:45.285Z,8548.00
2018-08-20T08:33:52.803Z,8144.00
2018-08-20T08:34:45.268Z,7976.00
2018-08-20T08:35:45.251Z,8200.00
2018-08-20T08:36:55.375Z,8392.00
2018-08-20T08:37:45.250Z,8708.00
2018-08-20T08:38:45.229Z,8848.00
2018-08-20T08:39:54.412Z,9956.00
2018-08-20T08:40:45.210Z,11088.00
2018-08-20T08:41:45.280Z,13736.00
2018-08-20T08:42:54.944Z,14516.00
2018-08-20T08:43:45.180Z,17472.00
2018-08-20T08:44:45.200Z,22592.00
2018-08-20T08:45:45.166Z,20736.00
2018-08-20T08:46:45.147Z,17376.00
2018-08-20T08:47:45.173Z,15128.00
2018-08-20T08:48:53.966Z,14008.00
2018-08-20T08:49:45.129Z,12968.00
2018-08-20T08:50:45.084Z,11708.00
2018-08-20T08:51:55.003Z,10748.00
2018-08-20T08:52:45.137Z,9676.00
2018-08-20T08:53:45.099Z,9112.00
2018-08-20T08:54:45.075Z,9180.00
2018-08-20T08:55:45.028Z,9148.00
2018-08-20T08:56:45.016Z,8508.00
2018-08-20T08:57:54.076Z,7168.00
2018-08-20T08:58:45.003Z,5904.00
2018-08-20T08:59:44.985Z,5332.00
2018-08-20T09:00:45.129Z,5036.00
2018-08-20T09:01:44.960Z,4588.00
2018-08-20T09:02:44.955Z,4124.00
2018-08-20T09:03:54.138Z,3492.00
2018-08-20T09:04:44.937Z,3316.00
2018-08-20T09:05:44.950Z,3436.00
2018-08-20T09:06:44.927Z,3888.00
2018-08-20T09:07:44.902Z,3476.00
2018-08-20T09:08:44.891Z,6064.00
2018-08-20T09:09:44.889Z,8564.00
2018-08-20T09:10:44.895Z,10232.00
2018-08-20T09:11:44.853Z,10748.00
2018-08-20T09:12:44.850Z,10684.00
2018-08-20T09:13:44.889Z,10748.00
2018-08-20T09:14:44.854Z,10792.00
2018-08-20T09:15:44.855Z,10072.00
2018-08-20T09:16:44.802Z,9948.00
2018-08-20T09:17:44.793Z,10568.00
2018-08-20T09:18:44.794Z,11484.00
2018-08-20T09:19:44.784Z,12196.00
2018-08-20T09:20:44.863Z,12928.00
2018-08-20T09:21:44.762Z,13348.00
2018-08-20T09:22:44.738Z,12384.00
2018-08-20T09:23:44.740Z,10512.00
2018-08-20T09:24:44.724Z,9120.00
2018-08-20T09:25:44.750Z,7520.00
2018-08-20T09:26:44.718Z,7540.00
2018-08-20T09:27:44.673Z,7516.00
2018-08-20T09:28:44.680Z,7420.00
2018-08-20T09:29:44.676Z,7472.00
2018-08-20T09:30:44.688Z,8348.00
2018-08-20T09:31:44.687Z,9392.00
2018-08-20T09:32:44.618Z,10368.00
2018-08-20T09:33:44.638Z,9916.00
2018-08-20T09:34:44.604Z,9556.00
2018-08-20T09:35:44.614Z,9352.00
2018-08-20T09:36:44.634Z,11344.00
2018-08-20T09:37:44.578Z,12900.00
2018-08-20T09:38:44.558Z,13728.00
2018-08-20T09:39:44.546Z,14512.00
2018-08-20T09:40:44.540Z,14240.00
2018-08-20T09:41:44.553Z,15760.00
2018-08-20T09:42:53.122Z,15956.00
2018-08-20T09:43:44.525Z,15684.00
2018-08-20T09:44:44.487Z,15176.00
2018-08-20T09:45:44.482Z,15288.00
2018-08-20T09:46:44.504Z,15704.00
2018-08-20T09:47:44.447Z,15956.00
2018-08-20T09:48:53.164Z,15032.00
2018-08-20T09:49:44.424Z,12860.00
2018-08-20T09:50:44.416Z,11664.00
2018-08-20T09:51:53.714Z,10584.00
2018-08-20T09:52:44.395Z,8208.00
2018-08-20T09:53:44.381Z,8684.00
2018-08-20T09:54:52.222Z,9520.00
2018-08-20T09:55:44.365Z,7892.00
2018-08-20T09:56:44.346Z,8300.00
2018-08-20T09:57:53.793Z,9100.00
2018-08-20T09:58:44.321Z,9584.00
2018-08-20T09:59:44.314Z,9496.00
2018-08-20T10:00:44.304Z,8156.00
2018-08-20T10:01:44.298Z,8144.00
2018-08-20T10:02:44.295Z,7356.00
2018-08-20T10:03:54.325Z,7508.00
2018-08-20T10:04:44.254Z,6516.00
2018-08-20T10:05:44.256Z,5612.00
2018-08-20T10:06:44.246Z,5252.00
2018-08-20T10:07:44.248Z,5808.00
2018-08-20T10:08:44.278Z,7752.00
2018-08-20T10:09:51.844Z,8288.00
2018-08-20T10:10:44.262Z,7992.00
2018-08-20T10:11:44.189Z,7888.00
2018-08-20T10:12:53.410Z,7024.00
2018-08-20T10:13:44.200Z,8188.00
2018-08-20T10:14:44.148Z,10212.00
2018-08-20T10:15:51.920Z,9936.00
2018-08-20T10:16:44.118Z,10072.00
2018-08-20T10:17:44.115Z,10576.00
2018-08-20T10:18:53.483Z,11500.00
2018-08-20T10:19:44.656Z,9748.00
2018-08-20T10:20:44.086Z,9100.00
2018-08-20T10:21:53.512Z,9024.00
2018-08-20T10:22:44.056Z,8564.00
2018-08-20T10:23:44.073Z,8444.00
2018-08-20T10:24:44.148Z,7124.00
2018-08-20T10:25:45.358Z,4548.00
2018-08-20T10:26:44.012Z,2932.00
2018-08-20T10:28:00.276Z,2212.00
2018-08-20T10:28:47.540Z,1956.00
2018-08-20T10:29:43.978Z,1696.00
2018-08-20T10:30:51.651Z,1320.00
2018-08-20T10:31:43.964Z,1564.00
2018-08-20T10:32:43.969Z,2036.00
2018-08-20T10:33:58.709Z,2628.00
2018-08-20T10:34:44.376Z,3744.00
2018-08-20T10:35:44.123Z,5352.00
2018-08-20T10:36:56.186Z,8136.00
2018-08-20T10:37:48.679Z,12236.00
2018-08-20T10:38:43.927Z,15908.00
2018-08-20T10:39:47.556Z,22048.00
2018-08-20T10:41:13.311Z,16084.00
2018-08-20T10:41:43.846Z,13448.00
2018-08-20T10:42:43.832Z,9816.00
2018-08-20T10:43:43.872Z,10820.00
2018-08-20T10:44:43.835Z,9080.00
2018-08-20T10:45:43.809Z,10256.00
2018-08-20T10:46:43.870Z,11180.00
2018-08-20T10:47:44.175Z,14292.00
2018-08-20T10:48:44.416Z,18688.00
2018-08-20T10:49:43.822Z,19520.00
2018-08-20T10:50:43.786Z,23424.00
2018-08-20T10:51:43.784Z,20672.00
2018-08-20T10:52:43.707Z,17280.00
2018-08-20T10:53:43.697Z,18624.00
2018-08-20T10:54:43.682Z,21600.00
2018-08-20T10:55:43.670Z,17824.00
2018-08-20T10:56:43.700Z,13784.00
2018-08-20T10:57:43.668Z,13168.00
2018-08-20T10:58:43.649Z,13472.00
2018-08-20T10:59:43.680Z,14568.00
2018-08-20T11:00:43.628Z,17120.00
2018-08-20T11:01:43.616Z,18176.00
2018-08-20T11:02:43.652Z,16872.00
2018-08-20T11:03:43.586Z,15540.00
2018-08-20T11:04:43.588Z,15212.00
2018-08-20T11:05:43.571Z,16648.00
2018-08-20T11:06:51.164Z,15760.00
2018-08-20T11:07:43.584Z,16520.00
2018-08-20T11:08:43.542Z,17344.00
2018-08-20T11:09:51.216Z,22560.00
2018-08-20T11:10:43.543Z,37312.00
2018-08-20T11:11:43.557Z,38720.00
2018-08-20T11:12:43.497Z,49728.00
2018-08-20T11:13:43.479Z,21536.00
2018-08-20T11:14:43.484Z,22784.00
2018-08-20T11:15:51.240Z,17408.00
2018-08-20T11:16:43.470Z,18464.00
2018-08-20T11:17:43.451Z,19136.00
2018-08-20T11:18:51.347Z,20800.00
2018-08-20T11:19:43.411Z,19104.00
2018-08-20T11:20:43.457Z,16168.00
2018-08-20T11:21:51.305Z,11416.00
2018-08-20T11:22:43.431Z,8900.00
2018-08-20T11:23:43.403Z,7656.00
2018-08-20T11:24:43.368Z,8780.00
2018-08-20T11:25:43.348Z,11532.00
2018-08-20T11:26:43.340Z,14080.00
2018-08-20T11:27:52.357Z,14000.00
2018-08-20T11:28:43.353Z,12916.00
2018-08-20T11:29:43.307Z,13808.00
2018-08-20T11:30:50.895Z,18080.00
2018-08-20T11:31:43.276Z,22208.00
2018-08-20T11:32:43.281Z,80512.00
2018-08-20T11:33:52.448Z,108576.00
2018-08-20T11:34:43.276Z,46112.00
2018-08-20T11:35:43.237Z,38432.00
2018-08-20T11:36:56.513Z,31488.00
2018-08-20T11:37:43.234Z,37344.00
2018-08-20T11:38:43.265Z,22880.00
2018-08-20T11:39:43.185Z,13356.00
2018-08-20T11:40:43.178Z,9276.00
2018-08-20T11:41:43.167Z,8064.00
2018-08-20T11:42:43.151Z,10444.00
2018-08-20T11:43:43.179Z,18784.00
2018-08-20T11:44:43.125Z,23040.00
2018-08-20T11:45:51.009Z,17216.00
2018-08-20T11:46:43.140Z,13324.00
2018-08-20T11:47:43.092Z,10920.00
2018-08-20T11:48:56.599Z,9476.00
2018-08-20T11:49:43.072Z,8464.00
2018-08-20T11:50:43.076Z,9624.00
2018-08-20T11:51:52.196Z,11564.00
2018-08-20T11:52:43.056Z,17472.00
2018-08-20T11:53:43.057Z,28992.00
2018-08-20T11:54:43.035Z,27776.00
2018-08-20T11:55:43.007Z,23712.00
2018-08-20T11:56:43.035Z,23904.00
2018-08-20T11:57:42.999Z,29024.00
2018-08-20T11:58:42.973Z,29440.00
2018-08-20T11:59:42.964Z,34688.00
2018-08-20T12:00:50.667Z,28224.00
2018-08-20T12:01:42.976Z,30528.00
2018-08-20T12:02:42.942Z,21920.00
2018-08-20T12:03:51.217Z,16556.00
2018-08-20T12:04:42.942Z,12652.00
2018-08-20T12:05:42.905Z,9496.00
2018-08-20T12:06:53.249Z,6932.00
2018-08-20T12:07:42.907Z,6616.00
2018-08-20T12:08:42.865Z,8156.00
2018-08-20T12:09:52.307Z,11092.00
2018-08-20T12:10:42.841Z,10864.00
2018-08-20T12:11:42.819Z,9340.00
2018-08-20T12:12:42.853Z,8556.00
2018-08-20T12:13:42.801Z,9900.00
2018-08-20T12:14:42.784Z,13940.00
2018-08-20T12:15:52.342Z,15688.00
2018-08-20T12:16:42.771Z,14760.00
2018-08-20T12:17:42.833Z,14044.00
2018-08-20T12:18:50.320Z,12044.00
2018-08-20T12:19:42.771Z,10528.00
2018-08-20T12:20:42.719Z,13008.00
2018-08-20T12:21:51.888Z,17376.00
2018-08-20T12:22:42.743Z,22976.00